Time;durP1;ratioP1;P1;durP2;ratioP2;P2;SDS_P1;SDS_P2;PMS_P1;PMS_P2;Temp;Humidity;BMP_temperature;BMP_pressure;BME280_temperature;BME280_humidity;BME280_pressure;Samples;Min_cycle;Max_cycle;Signal;HPM_P1;HPM_P2
2022/04/22 00:00:27;;;;;;;21.08;7.22;;;;;;;;;;5044392;28;20021;-85
2022/04/22 00:02:54;;;;;;;15.18;6.38;;;;;;;;;;5046416;28;20029;-86
2022/04/22 00:05:22;;;;;;;12.27;6.38;;;;;;;;;;5048315;28;20048;-86
2022/04/22 00:07:48;;;;;;;11.77;7.10;;;;;;;;;;5048160;28;20546;-86
2022/04/22 00:10:16;;;;;;;12.65;7.65;;;;;;;;;;5048616;28;20039;-86
2022/04/22 00:12:43;;;;;;;11.27;6.55;;;;;;;;;;5049707;28;20040;-86
2022/04/22 00:15:10;;;;;;;16.15;7.25;;;;;;;;;;5048222;28;20081;-83
2022/04/22 00:17:36;;;;;;;11.55;7.13;;;;;;;;;;5049313;28;20116;-84
2022/04/22 00:20:03;;;;;;;11.43;7.00;;;;;;;;;;5050542;28;20021;-85
2022/04/22 00:22:29;;;;;;;11.70;7.45;;;;;;;;;;5049863;28;20033;-86
2022/04/22 00:24:55;;;;;;;13.43;7.50;;;;;;;;;;5048473;28;20040;-85
2022/04/22 00:27:21;;;;;;;13.20;7.30;;;;;;;;;;5043320;28;20402;-87
2022/04/22 00:29:47;;;;;;;11.88;7.80;;;;;;;;;;5046109;28;20134;-87
2022/04/22 00:32:13;;;;;;;18.42;8.00;;;;;;;;;;5024673;28;20099;-86
2022/04/22 00:34:40;;;;;;;14.43;7.90;;;;;;;;;;5042015;28;20487;-86
2022/04/22 00:37:06;;;;;;;13.35;7.75;;;;;;;;;;5044027;28;20172;-85
2022/04/22 00:39:32;;;;;;;15.10;7.82;;;;;;;;;;5025058;28;20029;-87
2022/04/22 00:41:58;;;;;;;13.02;7.63;;;;;;;;;;5049134;28;20025;-87
2022/04/22 00:44:24;;;;;;;14.35;7.90;;;;;;;;;;5051618;28;20045;-86
2022/04/22 00:46:50;;;;;;;12.55;7.72;;;;;;;;;;5053943;28;20122;-85
2022/04/22 00:49:16;;;;;;;13.52;8.20;;;;;;;;;;5045591;28;20038;-86
2022/04/22 00:51:44;;;;;;;16.20;8.70;;;;;;;;;;5047389;28;20032;-86
2022/04/22 00:54:10;;;;;;;16.42;9.25;;;;;;;;;;5050807;28;20089;-86
2022/04/22 00:56:36;;;;;;;18.05;8.77;;;;;;;;;;5047882;28;20033;-87
2022/04/22 00:59:03;;;;;;;15.23;8.20;;;;;;;;;;5051062;28;20160;-88
2022/04/22 01:01:30;;;;;;;15.52;9.02;;;;;;;;;;5045955;28;20025;-85
2022/04/22 01:12:11;;;;;;;14.48;8.57;;;;;;;;;;5064838;28;20128;-85
2022/04/22 01:14:37;;;;;;;14.73;9.32;;;;;;;;;;5072114;28;20075;-85
2022/04/22 01:17:04;;;;;;;14.48;8.45;;;;;;;;;;5048567;28;20025;-85
2022/04/22 01:19:30;;;;;;;14.68;9.63;;;;;;;;;;5066876;28;20032;-86
2022/04/22 01:21:56;;;;;;;17.65;8.38;;;;;;;;;;5069302;28;20473;-85
2022/04/22 01:24:41;;;;;;;16.10;8.65;;;;;;;;;;5064905;28;20031;-85
2022/04/22 01:27:09;;;;;;;16.58;8.35;;;;;;;;;;5063704;28;20037;-85
2022/04/22 01:29:35;;;;;;;14.43;8.63;;;;;;;;;;5067288;28;20047;-85
2022/04/22 01:32:01;;;;;;;15.40;8.55;;;;;;;;;;5067828;28;20032;-87
2022/04/22 01:34:28;;;;;;;18.20;8.65;;;;;;;;;;5065641;28;20354;-85
2022/04/22 01:36:54;;;;;;;15.90;10.13;;;;;;;;;;5064723;28;20048;-85
2022/04/22 01:39:20;;;;;;;16.75;9.05;;;;;;;;;;5068623;28;20033;-87
2022/04/22 01:41:46;;;;;;;16.33;9.23;;;;;;;;;;5053405;28;20527;-87
2022/04/22 01:44:12;;;;;;;12.77;9.02;;;;;;;;;;5070768;28;20029;-86
2022/04/22 01:46:38;;;;;;;15.15;9.30;;;;;;;;;;5067346;28;20090;-85
2022/04/22 01:49:04;;;;;;;13.93;8.70;;;;;;;;;;5062253;28;20036;-84
2022/04/22 01:51:30;;;;;;;18.63;9.80;;;;;;;;;;5057402;28;20022;-85
2022/04/22 01:53:56;;;;;;;14.15;8.93;;;;;;;;;;5067429;28;20025;-84
2022/04/22 01:56:22;;;;;;;30.35;9.30;;;;;;;;;;5045965;28;20090;-85
2022/04/22 01:58:48;;;;;;;14.05;8.90;;;;;;;;;;5066960;28;20036;-88
2022/04/22 02:01:14;;;;;;;15.88;9.40;;;;;;;;;;5060415;28;20021;-84
2022/04/22 02:03:40;;;;;;;16.00;9.55;;;;;;;;;;5056585;28;20033;-85
2022/04/22 02:06:06;;;;;;;13.32;9.20;;;;;;;;;;5060360;28;20063;-83
2022/04/22 02:08:32;;;;;;;17.88;9.75;;;;;;;;;;5056879;28;20037;-84
2022/04/22 02:10:59;;;;;;;26.98;9.73;;;;;;;;;;5058078;28;20147;-84
2022/04/22 02:13:25;;;;;;;13.93;9.45;;;;;;;;;;5060256;28;20098;-83
2022/04/22 02:15:51;;;;;;;18.92;9.57;;;;;;;;;;5058547;28;20029;-83
2022/04/22 02:18:17;;;;;;;20.42;9.73;;;;;;;;;;5060283;28;20902;-84
2022/04/22 02:20:44;;;;;;;18.50;10.45;;;;;;;;;;5039458;28;20056;-85
2022/04/22 02:23:10;;;;;;;17.25;8.75;;;;;;;;;;5059864;28;20040;-83
2022/04/22 02:25:36;;;;;;;16.20;9.27;;;;;;;;;;5063282;28;20113;-83
2022/04/22 02:30:46;;;;;;;16.08;9.52;;;;;;;;;;5064113;28;20047;-84
2022/04/22 02:33:13;;;;;;;19.70;10.18;;;;;;;;;;5048800;28;20124;-83
2022/04/22 02:35:39;;;;;;;16.20;9.90;;;;;;;;;;5062897;28;20062;-84
2022/04/22 02:38:05;;;;;;;14.13;9.32;;;;;;;;;;5035835;28;20025;-83
2022/04/22 02:46:01;;;;;;;15.93;9.65;;;;;;;;;;5061250;28;20110;-84
2022/04/22 02:48:27;;;;;;;19.25;9.07;;;;;;;;;;5068283;28;20571;-85
2022/04/22 02:50:53;;;;;;;13.50;9.52;;;;;;;;;;5066311;28;20021;-84
2022/04/22 02:53:20;;;;;;;17.50;9.48;;;;;;;;;;5038461;28;20029;-85
2022/04/22 02:55:49;;;;;;;17.58;10.18;;;;;;;;;;5063976;28;20494;-86
2022/04/22 02:58:15;;;;;;;14.52;9.95;;;;;;;;;;5058297;28;20035;-86
2022/04/22 03:00:41;;;;;;;15.02;9.70;;;;;;;;;;5062876;28;20025;-85
2022/04/22 03:03:07;;;;;;;18.02;10.30;;;;;;;;;;5049784;28;20134;-84
2022/04/22 03:05:34;;;;;;;16.63;9.98;;;;;;;;;;5049222;28;20032;-86
2022/04/22 03:08:01;;;;;;;16.80;10.60;;;;;;;;;;5062525;28;20048;-84
2022/04/22 03:10:27;;;;;;;15.13;10.35;;;;;;;;;;5068548;28;20036;-85
2022/04/22 03:12:53;;;;;;;16.55;10.48;;;;;;;;;;5069898;28;20116;-85
2022/04/22 03:15:19;;;;;;;17.45;9.95;;;;;;;;;;5062289;28;20028;-86
2022/04/22 03:17:45;;;;;;;18.08;10.57;;;;;;;;;;5039622;28;20108;-85
2022/04/22 03:20:11;;;;;;;18.15;10.85;;;;;;;;;;5063331;28;20021;-86
2022/04/22 03:22:37;;;;;;;22.38;11.52;;;;;;;;;;5069897;28;20033;-87
2022/04/22 03:25:04;;;;;;;19.52;10.98;;;;;;;;;;5042817;28;20025;-84
2022/04/22 03:27:30;;;;;;;19.98;11.65;;;;;;;;;;5064846;28;20517;-86
2022/04/22 03:29:56;;;;;;;16.83;11.43;;;;;;;;;;5045495;28;20033;-86
2022/04/22 03:32:22;;;;;;;18.30;11.23;;;;;;;;;;5045645;28;20029;-87
2022/04/22 03:34:48;;;;;;;19.70;11.75;;;;;;;;;;5070939;28;20307;-86
2022/04/22 03:37:14;;;;;;;23.15;12.20;;;;;;;;;;5058831;28;20029;-85
2022/04/22 03:39:40;;;;;;;20.35;11.48;;;;;;;;;;5069998;28;20017;-86
2022/04/22 03:42:07;;;;;;;21.58;12.35;;;;;;;;;;5070846;28;20025;-86
2022/04/22 03:44:34;;;;;;;21.00;12.10;;;;;;;;;;5053960;28;20358;-85
2022/04/22 03:47:03;;;;;;;19.17;12.23;;;;;;;;;;5060823;28;20037;-85
2022/04/22 03:49:29;;;;;;;22.00;12.63;;;;;;;;;;5069181;28;20044;-85
2022/04/22 03:51:55;;;;;;;21.65;12.45;;;;;;;;;;5062564;28;20040;-85
2022/04/22 03:54:24;;;;;;;19.67;12.60;;;;;;;;;;5072645;28;20041;-86
2022/04/22 03:59:35;;;;;;;21.05;13.73;;;;;;;;;;5069871;28;20060;-83
2022/04/22 04:02:05;;;;;;;18.20;12.70;;;;;;;;;;5067078;28;20032;-83
2022/04/22 04:04:31;;;;;;;20.50;13.25;;;;;;;;;;5074625;28;20060;-83
2022/04/22 04:06:57;;;;;;;20.98;13.20;;;;;;;;;;5071857;28;20040;-83
2022/04/22 04:17:39;;;;;;;25.50;14.45;;;;;;;;;;5065261;28;20055;-84
2022/04/22 04:25:35;;;;;;;24.85;14.98;;;;;;;;;;5074933;28;20043;-85
2022/04/22 04:28:02;;;;;;;24.10;14.77;;;;;;;;;;5066159;28;20110;-84
2022/04/22 04:30:29;;;;;;;24.13;15.65;;;;;;;;;;5065932;28;20040;-85
2022/04/22 04:32:55;;;;;;;27.90;15.43;;;;;;;;;;5063528;28;20036;-83
2022/04/22 04:35:21;;;;;;;24.98;15.20;;;;;;;;;;5069776;28;20044;-86
2022/04/22 04:37:47;;;;;;;32.20;17.40;;;;;;;;;;5072131;28;20068;-86
2022/04/22 04:40:13;;;;;;;21.05;15.95;;;;;;;;;;5049167;28;20041;-86
2022/04/22 04:42:41;;;;;;;26.70;15.70;;;;;;;;;;5065045;28;20037;-86
2022/04/22 04:45:07;;;;;;;24.17;15.80;;;;;;;;;;5067680;28;20051;-85
2022/04/22 04:47:43;;;;;;;19.20;14.88;;;;;;;;;;5046350;28;20037;-85
2022/04/22 04:50:09;;;;;;;35.83;17.05;;;;;;;;;;5070420;28;20088;-85
2022/04/22 04:52:37;;;;;;;22.60;15.25;;;;;;;;;;5068048;28;20031;-86
2022/04/22 04:55:04;;;;;;;23.10;14.85;;;;;;;;;;5049826;28;20033;-85
2022/04/22 04:57:32;;;;;;;23.00;15.00;;;;;;;;;;5066059;28;20030;-85
2022/04/22 04:59:58;;;;;;;27.50;15.85;;;;;;;;;;5073670;28;20084;-84
2022/04/22 05:02:24;;;;;;;22.23;15.25;;;;;;;;;;5072452;28;21776;-84
2022/04/22 05:05:10;;;;;;;22.92;15.02;;;;;;;;;;5065386;28;20045;-84
2022/04/22 05:07:50;;;;;;;23.02;16.10;;;;;;;;;;5062204;28;20029;-84
2022/04/22 05:10:18;;;;;;;24.40;15.75;;;;;;;;;;5058125;28;20029;-82
2022/04/22 05:13:03;;;;;;;26.13;16.73;;;;;;;;;;5048397;28;20462;-84
2022/04/22 05:15:30;;;;;;;25.45;16.00;;;;;;;;;;5072922;28;20029;-84
2022/04/22 05:17:57;;;;;;;20.50;14.70;;;;;;;;;;5062753;28;20033;-87
2022/04/22 05:20:27;;;;;;;45.10;15.95;;;;;;;;;;5065374;28;20021;-83
2022/04/22 05:22:54;;;;;;;22.67;14.68;;;;;;;;;;5062090;28;20029;-85
2022/04/22 05:25:20;;;;;;;20.02;13.82;;;;;;;;;;5071155;28;20044;-86
2022/04/22 05:27:50;;;;;;;24.20;14.07;;;;;;;;;;5071439;28;20056;-83
2022/04/22 05:33:03;;;;;;;23.95;13.95;;;;;;;;;;5065000;28;20051;-80
2022/04/22 05:35:29;;;;;;;20.52;12.98;;;;;;;;;;5061804;28;20045;-81
2022/04/22 05:37:56;;;;;;;24.85;14.52;;;;;;;;;;5044566;28;20119;-86
2022/04/22 05:40:40;;;;;;;22.23;14.05;;;;;;;;;;5064438;28;20016;-87
2022/04/22 05:43:07;;;;;;;22.83;14.32;;;;;;;;;;5073619;28;20040;-86
2022/04/22 05:45:34;;;;;;;22.95;14.43;;;;;;;;;;5071897;28;20066;-87
2022/04/22 05:48:00;;;;;;;23.77;14.77;;;;;;;;;;5070543;28;20032;-85
2022/04/22 05:50:27;;;;;;;26.33;15.65;;;;;;;;;;5071296;28;20063;-85
2022/04/22 05:52:53;;;;;;;24.95;15.20;;;;;;;;;;5070128;28;20021;-86
2022/04/22 05:55:20;;;;;;;24.63;14.48;;;;;;;;;;5070028;28;20033;-85
2022/04/22 05:57:47;;;;;;;22.85;15.07;;;;;;;;;;5071763;28;20032;-85
2022/04/22 06:00:14;;;;;;;26.08;16.52;;;;;;;;;;5048781;28;20025;-87
2022/04/22 06:02:41;;;;;;;25.10;15.93;;;;;;;;;;5065005;28;20119;-87
2022/04/22 06:05:07;;;;;;;42.75;17.48;;;;;;;;;;5069121;28;20049;-83
2022/04/22 06:07:33;;;;;;;27.85;16.15;;;;;;;;;;5063959;28;20029;-83
2022/04/22 06:12:44;;;;;;;23.30;15.52;;;;;;;;;;5061083;28;20068;-87
2022/04/22 06:15:10;;;;;;;23.25;15.98;;;;;;;;;;5066232;28;20482;-86
2022/04/22 06:17:36;;;;;;;29.25;16.00;;;;;;;;;;5043444;28;20032;-86
2022/04/22 06:20:02;;;;;;;32.03;16.67;;;;;;;;;;5044017;28;20083;-87
2022/04/22 06:22:30;;;;;;;32.03;16.05;;;;;;;;;;5062322;28;20028;-84
2022/04/22 06:24:56;;;;;;;26.92;16.45;;;;;;;;;;5066295;28;20031;-88
2022/04/22 06:27:23;;;;;;;28.65;16.83;;;;;;;;;;5060008;28;20128;-84
2022/04/22 06:29:49;;;;;;;27.92;16.33;;;;;;;;;;5059636;28;20040;-82
2022/04/22 06:32:16;;;;;;;40.10;17.58;;;;;;;;;;5063117;28;20043;-88
2022/04/22 06:34:42;;;;;;;26.52;16.02;;;;;;;;;;5065863;28;20501;-85
2022/04/22 06:37:11;;;;;;;35.33;16.60;;;;;;;;;;5046485;28;20027;-86
2022/04/22 06:47:53;;;;;;;27.77;17.63;;;;;;;;;;5063048;28;20048;-86
2022/04/22 06:50:20;;;;;;;36.53;16.70;;;;;;;;;;5071082;28;20027;-88
2022/04/22 06:52:47;;;;;;;27.92;16.65;;;;;;;;;;5085344;28;20111;-88
2022/04/22 06:55:22;;;;;;;28.95;17.55;;;;;;;;;;5062911;28;20076;-85
2022/04/22 06:57:49;;;;;;;27.83;18.35;;;;;;;;;;5082980;28;20509;-84
2022/04/22 07:00:16;;;;;;;26.13;17.65;;;;;;;;;;5073579;28;20079;-83
2022/04/22 07:02:42;;;;;;;27.83;18.25;;;;;;;;;;5064433;28;20091;-84
2022/04/22 07:05:09;;;;;;;33.65;19.13;;;;;;;;;;5049454;28;20621;-87
2022/04/22 07:07:36;;;;;;;31.38;17.90;;;;;;;;;;5043705;28;20075;-85
2022/04/22 07:10:03;;;;;;;26.15;17.00;;;;;;;;;;5041687;28;20028;-85
2022/04/22 07:12:29;;;;;;;30.20;17.02;;;;;;;;;;5043894;28;20084;-84
2022/04/22 07:15:03;;;;;;;31.10;16.55;;;;;;;;;;5045670;28;20045;-86
2022/04/22 07:17:40;;;;;;;28.10;16.80;;;;;;;;;;5043084;28;20065;-87
2022/04/22 07:20:09;;;;;;;30.92;17.83;;;;;;;;;;5042800;28;20029;-84
2022/04/22 07:22:39;;;;;;;24.48;16.80;;;;;;;;;;5046460;28;20112;-82
2022/04/22 07:25:05;;;;;;;33.88;17.40;;;;;;;;;;5040737;28;20030;-87
2022/04/22 07:27:34;;;;;;;25.27;15.82;;;;;;;;;;5045835;28;20025;-86
2022/04/22 07:30:00;;;;;;;25.67;16.88;;;;;;;;;;5058932;28;20036;-84
2022/04/22 07:32:27;;;;;;;27.73;16.15;;;;;;;;;;5043547;28;20453;-85
2022/04/22 07:34:54;;;;;;;31.90;16.08;;;;;;;;;;5021524;28;20403;-87
2022/04/22 07:37:20;;;;;;;27.58;14.60;;;;;;;;;;5022798;28;20089;-87
2022/04/22 07:39:46;;;;;;;27.38;16.10;;;;;;;;;;5057323;28;20088;-88
2022/04/22 07:42:21;;;;;;;25.83;14.68;;;;;;;;;;5045625;28;20026;-85
2022/04/22 07:47:38;;;;;;;22.87;15.23;;;;;;;;;;5037526;28;20043;-86
2022/04/22 07:50:25;;;;;;;28.95;13.80;;;;;;;;;;5021817;28;20034;-85
2022/04/22 07:52:51;;;;;;;23.38;13.63;;;;;;;;;;5050320;28;20115;-86
2022/04/22 07:55:17;;;;;;;24.45;13.77;;;;;;;;;;5061322;28;20080;-88
2022/04/22 07:57:43;;;;;;;24.58;13.30;;;;;;;;;;5044885;28;20120;-86
2022/04/22 08:00:10;;;;;;;28.48;13.90;;;;;;;;;;5056661;28;20030;-86
2022/04/22 08:02:40;;;;;;;22.77;13.23;;;;;;;;;;5051746;28;20053;-84
2022/04/22 08:05:07;;;;;;;21.73;13.55;;;;;;;;;;5063204;28;20052;-87
2022/04/22 08:07:33;;;;;;;18.60;12.40;;;;;;;;;;5061557;28;20110;-86
2022/04/22 08:09:59;;;;;;;25.75;13.35;;;;;;;;;;5065591;28;20036;-83
2022/04/22 08:12:25;;;;;;;25.38;13.57;;;;;;;;;;5059822;28;20039;-85
2022/04/22 08:14:51;;;;;;;17.83;12.27;;;;;;;;;;5070322;28;20048;-84
2022/04/22 08:17:17;;;;;;;21.70;12.23;;;;;;;;;;5048577;28;20094;-86
2022/04/22 08:19:46;;;;;;;23.73;12.60;;;;;;;;;;5046070;28;20043;-82
2022/04/22 08:22:12;;;;;;;20.38;12.45;;;;;;;;;;5067906;28;20012;-83
2022/04/22 08:24:38;;;;;;;20.40;12.30;;;;;;;;;;5066790;28;20044;-86
2022/04/22 08:27:06;;;;;;;20.05;12.18;;;;;;;;;;5063640;28;20041;-87
2022/04/22 08:29:33;;;;;;;17.77;12.23;;;;;;;;;;5066655;28;20528;-80
2022/04/22 08:31:59;;;;;;;24.63;11.63;;;;;;;;;;5066658;28;20059;-81
2022/04/22 08:34:25;;;;;;;19.10;11.93;;;;;;;;;;5037867;28;20033;-85
2022/04/22 08:36:51;;;;;;;21.10;11.70;;;;;;;;;;5058040;28;20088;-84
2022/04/22 08:39:17;;;;;;;18.48;12.05;;;;;;;;;;5034122;28;20040;-85
2022/04/22 08:41:44;;;;;;;16.65;11.25;;;;;;;;;;5055710;28;20427;-83
2022/04/22 08:44:13;;;;;;;20.40;11.55;;;;;;;;;;5060732;28;20516;-82
2022/04/22 08:52:12;;;;;;;19.00;11.05;;;;;;;;;;5071842;28;20063;-86
2022/04/22 08:54:49;;;;;;;20.73;11.80;;;;;;;;;;5089603;28;20142;-82
2022/04/22 08:57:15;;;;;;;18.40;11.02;;;;;;;;;;5087897;28;20057;-84
2022/04/22 08:59:42;;;;;;;34.55;12.27;;;;;;;;;;5085980;28;20017;-86
2022/04/22 09:02:08;;;;;;;19.23;11.48;;;;;;;;;;5082361;28;20367;-83
2022/04/22 09:04:34;;;;;;;15.93;10.85;;;;;;;;;;5086340;28;20175;-84
2022/04/22 09:07:00;;;;;;;23.63;11.48;;;;;;;;;;5068332;28;20024;-83
2022/04/22 09:09:26;;;;;;;19.40;11.35;;;;;;;;;;5079068;28;20040;-83
2022/04/22 09:11:53;;;;;;;20.38;11.52;;;;;;;;;;5064416;28;20042;-84
2022/04/22 09:14:23;;;;;;;18.20;11.00;;;;;;;;;;5090151;28;20709;-85
2022/04/22 09:16:50;;;;;;;23.42;11.63;;;;;;;;;;5086359;28;20076;-85
2022/04/22 09:19:18;;;;;;;18.30;10.95;;;;;;;;;;5099749;28;20012;-84
2022/04/22 09:21:55;;;;;;;18.58;10.38;;;;;;;;;;5089775;28;20116;-82
2022/04/22 09:24:21;;;;;;;15.75;10.80;;;;;;;;;;5088092;28;20025;-86
2022/04/22 09:27:02;;;;;;;19.30;10.73;;;;;;;;;;5085927;28;20028;-87
2022/04/22 09:29:28;;;;;;;14.30;10.35;;;;;;;;;;5096142;28;20028;-84
2022/04/22 09:31:55;;;;;;;18.08;10.10;;;;;;;;;;5070958;28;20040;-84
2022/04/22 09:34:36;;;;;;;14.13;9.77;;;;;;;;;;5067774;28;20055;-83
2022/04/22 09:42:51;;;;;;;15.40;10.20;;;;;;;;;;5086640;28;20062;-82
2022/04/22 09:45:17;;;;;;;14.85;9.38;;;;;;;;;;5085224;28;20040;-85
2022/04/22 09:47:44;;;;;;;14.55;9.27;;;;;;;;;;5092164;28;20161;-81
2022/04/22 09:50:11;;;;;;;15.85;8.82;;;;;;;;;;5061225;28;20041;-81
2022/04/22 09:52:46;;;;;;;13.68;8.48;;;;;;;;;;5090938;28;20036;-83
2022/04/22 09:55:16;;;;;;;14.75;8.48;;;;;;;;;;5048815;28;20025;-81
2022/04/22 09:57:52;;;;;;;13.45;7.53;;;;;;;;;;5088288;28;20036;-83
2022/04/22 10:00:19;;;;;;;13.35;7.90;;;;;;;;;;5085782;28;20048;-82
2022/04/22 10:02:50;;;;;;;13.70;8.10;;;;;;;;;;5058141;28;20029;-84
2022/04/22 10:05:19;;;;;;;17.75;8.20;;;;;;;;;;5078174;28;20112;-83
2022/04/22 10:07:46;;;;;;;12.18;7.80;;;;;;;;;;5086373;28;20093;-81
2022/04/22 10:10:13;;;;;;;12.68;8.65;;;;;;;;;;5089521;28;20052;-83
2022/04/22 10:12:40;;;;;;;14.77;8.23;;;;;;;;;;5070657;28;20078;-82
2022/04/22 10:15:10;;;;;;;13.30;8.13;;;;;;;;;;5088862;28;20027;-84
2022/04/22 10:17:38;;;;;;;13.05;7.88;;;;;;;;;;5088667;28;20035;-83
2022/04/22 10:20:07;;;;;;;11.48;8.15;;;;;;;;;;5099003;28;20027;-83
2022/04/22 10:22:35;;;;;;;12.65;7.75;;;;;;;;;;5085428;28;20100;-83
2022/04/22 10:25:07;;;;;;;14.48;7.45;;;;;;;;;;5074635;28;20693;-80
2022/04/22 10:27:34;;;;;;;12.57;8.35;;;;;;;;;;5083075;28;20029;-81
2022/04/22 10:30:00;;;;;;;18.63;8.93;;;;;;;;;;5090833;28;20114;-83
2022/04/22 10:32:27;;;;;;;13.18;8.68;;;;;;;;;;5073759;28;20048;-86
2022/04/22 10:35:00;;;;;;;14.90;7.63;;;;;;;;;;5080039;28;20565;-84
2022/04/22 10:37:27;;;;;;;13.30;7.63;;;;;;;;;;5071656;28;20041;-83
2022/04/22 10:39:54;;;;;;;16.83;8.48;;;;;;;;;;5089054;28;20028;-83
2022/04/22 10:42:20;;;;;;;14.55;7.80;;;;;;;;;;5086627;28;20123;-82
2022/04/22 10:47:39;;;;;;;13.38;7.80;;;;;;;;;;5081850;28;20129;-81
2022/04/22 10:50:24;;;;;;;16.52;8.77;;;;;;;;;;5075863;28;20029;-81
2022/04/22 10:53:03;;;;;;;11.98;8.20;;;;;;;;;;5089090;28;20077;-81
2022/04/22 10:55:31;;;;;;;13.30;8.52;;;;;;;;;;5091164;28;20101;-82
2022/04/22 10:58:13;;;;;;;13.07;7.97;;;;;;;;;;5088182;28;20360;-79
2022/04/22 11:00:44;;;;;;;16.58;8.00;;;;;;;;;;5079079;28;20568;-81
2022/04/22 11:03:13;;;;;;;12.07;7.45;;;;;;;;;;5068382;28;20115;-81
2022/04/22 11:05:43;;;;;;;11.23;8.00;;;;;;;;;;5061650;28;20032;-82
2022/04/22 11:08:16;;;;;;;17.27;8.40;;;;;;;;;;5086930;28;20035;-81
2022/04/22 11:10:51;;;;;;;18.20;8.02;;;;;;;;;;5082826;28;20115;-84
2022/04/22 11:13:29;;;;;;;13.68;8.27;;;;;;;;;;5092185;28;20115;-81
2022/04/22 11:16:08;;;;;;;18.88;8.18;;;;;;;;;;5082615;28;20033;-83
2022/04/22 11:18:39;;;;;;;16.70;8.70;;;;;;;;;;5083644;28;20047;-82
2022/04/22 11:21:11;;;;;;;15.30;6.82;;;;;;;;;;5047429;28;20030;-81
2022/04/22 11:23:42;;;;;;;16.27;6.95;;;;;;;;;;5063415;28;20024;-82
2022/04/22 11:26:10;;;;;;;12.18;7.65;;;;;;;;;;5063797;28;20032;-79
2022/04/22 11:28:37;;;;;;;12.32;6.82;;;;;;;;;;5063464;28;20111;-79
2022/04/22 11:31:05;;;;;;;13.45;6.43;;;;;;;;;;5070423;28;20024;-81
2022/04/22 11:33:53;;;;;;;12.27;6.75;;;;;;;;;;5067036;28;20028;-84
2022/04/22 11:36:20;;;;;;;9.70;5.57;;;;;;;;;;5065277;28;20028;-81
2022/04/22 11:38:50;;;;;;;11.20;6.00;;;;;;;;;;5084573;28;20043;-79
2022/04/22 11:41:16;;;;;;;;;;;;;;;;;;5085221;28;20052;-81
2022/04/22 11:43:43;;;;;;;8.98;5.28;;;;;;;;;;5075859;28;20003;-83
2022/04/22 11:46:11;;;;;;;14.13;5.38;;;;;;;;;;5089018;28;20397;-83
2022/04/22 11:48:44;;;;;;;14.75;5.78;;;;;;;;;;5091166;28;20039;-83
2022/04/22 11:51:11;;;;;;;10.18;4.85;;;;;;;;;;5073613;28;20043;-83
2022/04/22 11:53:37;;;;;;;10.37;5.00;;;;;;;;;;5068804;28;20031;-82
2022/04/22 11:56:06;;;;;;;12.70;4.90;;;;;;;;;;5067595;28;20249;-82
2022/04/22 11:58:56;;;;;;;7.68;4.13;;;;;;;;;;5073977;28;20074;-80
2022/04/22 12:06:56;;;;;;;13.00;4.82;;;;;;;;;;5075314;28;20389;-82
2022/04/22 12:09:22;;;;;;;7.25;4.25;;;;;;;;;;5069797;28;20029;-81
2022/04/22 12:11:51;;;;;;;8.90;4.50;;;;;;;;;;5053126;28;20021;-82
2022/04/22 12:14:24;;;;;;;12.10;3.65;;;;;;;;;;5067714;28;20106;-83
2022/04/22 12:17:01;;;;;;;8.48;3.53;;;;;;;;;;5060687;28;20044;-81
2022/04/22 12:19:27;;;;;;;8.52;3.90;;;;;;;;;;5052844;28;20435;-82
2022/04/22 12:21:53;;;;;;;12.13;3.65;;;;;;;;;;5070704;28;20032;-79
2022/04/22 12:24:21;;;;;;;7.85;3.78;;;;;;;;;;5066987;28;20148;-82
2022/04/22 12:26:48;;;;;;;9.90;4.13;;;;;;;;;;5067838;28;20064;-80
2022/04/22 12:29:18;;;;;;;8.75;4.20;;;;;;;;;;5049191;28;20423;-80
2022/04/22 12:31:45;;;;;;;6.18;3.60;;;;;;;;;;5070245;28;20181;-81
2022/04/22 12:34:14;;;;;;;17.17;4.78;;;;;;;;;;5065409;28;20060;-81
2022/04/22 12:37:01;;;;;;;11.07;4.68;;;;;;;;;;5072090;28;20507;-81
2022/04/22 12:39:43;;;;;;;7.97;4.47;;;;;;;;;;5062738;28;20039;-80
2022/04/22 12:42:15;;;;;;;7.53;3.85;;;;;;;;;;5068823;28;20028;-81
2022/04/22 12:52:07;;;;;;;11.13;4.10;;;;;;;;;;5048516;28;20056;-79
2022/04/22 12:52:57;;;;;;;8.90;4.40;;;;;;;;;;5063414;28;20190;-79
2022/04/22 12:55:23;;;;;;;8.60;4.00;;;;;;;;;;5055098;28;20033;-82
2022/04/22 12:57:59;;;;;;;12.43;4.32;;;;;;;;;;5065679;28;20099;-81
2022/04/22 13:00:25;;;;;;;11.00;3.97;;;;;;;;;;5061425;28;20037;-82
2022/04/22 13:02:51;;;;;;;10.27;4.20;;;;;;;;;;5066656;28;20036;-78
2022/04/22 13:05:23;;;;;;;10.43;4.18;;;;;;;;;;5063791;28;20122;-82
2022/04/22 13:07:50;;;;;;;19.20;4.47;;;;;;;;;;5069564;28;20029;-80
2022/04/22 13:10:18;;;;;;;10.27;3.90;;;;;;;;;;5049258;28;20029;-81
2022/04/22 13:12:44;;;;;;;13.98;4.43;;;;;;;;;;5064358;28;20025;-77
2022/04/22 13:15:20;;;;;;;9.65;4.28;;;;;;;;;;5062307;28;20029;-80
2022/04/22 13:17:47;;;;;;;10.35;4.65;;;;;;;;;;5057002;28;20021;-79
2022/04/22 13:20:14;;;;;;;19.13;5.85;;;;;;;;;;5066208;28;20649;-79
2022/04/22 13:22:41;;;;;;;8.55;4.32;;;;;;;;;;5059048;28;20090;-80
2022/04/22 13:25:12;;;;;;;11.77;4.20;;;;;;;;;;5066585;28;20056;-79
2022/04/22 13:27:39;;;;;;;12.73;4.70;;;;;;;;;;5059119;28;20029;-81
2022/04/22 13:30:05;;;;;;;6.90;4.20;;;;;;;;;;5056616;28;20489;-80
2022/04/22 13:32:31;;;;;;;8.23;4.53;;;;;;;;;;5039244;28;20029;-81
2022/04/22 13:34:58;;;;;;;10.25;4.53;;;;;;;;;;5058156;28;20569;-82
2022/04/22 13:37:26;;;;;;;17.33;4.30;;;;;;;;;;5053567;28;20048;-81
2022/04/22 13:39:52;;;;;;;10.15;4.20;;;;;;;;;;5057465;28;20028;-77
2022/04/22 13:42:18;;;;;;;11.63;4.50;;;;;;;;;;5056062;28;20108;-83
2022/04/22 13:52:59;;;;;;;12.23;4.65;;;;;;;;;;5066311;28;20090;-82
2022/04/22 13:55:25;;;;;;;12.23;4.03;;;;;;;;;;5064653;28;20025;-81
2022/04/22 13:57:51;;;;;;;47.20;5.40;;;;;;;;;;5069700;28;20038;-82
2022/04/22 14:00:18;;;;;;;11.85;7.10;;;;;;;;;;5083606;28;20080;-82
2022/04/22 14:02:44;;;;;;;15.07;4.43;;;;;;;;;;5084863;28;20051;-81
2022/04/22 14:05:11;;;;;;;9.13;4.03;;;;;;;;;;5080979;28;20044;-83
2022/04/22 14:07:37;;;;;;;7.47;4.78;;;;;;;;;;5099584;28;20017;-81
2022/04/22 14:10:04;;;;;;;11.52;4.15;;;;;;;;;;5096877;28;20107;-83
2022/04/22 14:12:31;;;;;;;9.25;4.88;;;;;;;;;;5080290;28;20036;-83
2022/04/22 14:14:57;;;;;;;11.45;4.28;;;;;;;;;;5083172;28;20493;-81
2022/04/22 14:17:23;;;;;;;7.15;3.97;;;;;;;;;;5073751;28;20334;-82
2022/04/22 14:19:49;;;;;;;7.95;3.90;;;;;;;;;;5088626;28;20035;-79
2022/04/22 14:22:15;;;;;;;6.88;4.00;;;;;;;;;;5078743;28;20040;-80
2022/04/22 14:24:42;;;;;;;7.15;4.07;;;;;;;;;;5091784;28;20051;-83
2022/04/22 14:27:11;;;;;;;8.85;3.65;;;;;;;;;;5071796;28;20024;-82
2022/04/22 14:29:37;;;;;;;9.27;3.95;;;;;;;;;;5084601;28;20028;-81
2022/04/22 14:32:05;;;;;;;10.50;4.10;;;;;;;;;;5081178;28;20037;-81
2022/04/22 14:34:31;;;;;;;13.50;4.53;;;;;;;;;;5084230;28;20047;-81
2022/04/22 14:36:57;;;;;;;9.93;3.88;;;;;;;;;;5086210;28;20017;-83
2022/04/22 14:39:24;;;;;;;8.27;3.75;;;;;;;;;;5069655;28;20025;-82
2022/04/22 14:41:50;;;;;;;63.40;8.02;;;;;;;;;;5076273;28;20020;-81
2022/04/22 14:44:17;;;;;;;14.88;3.40;;;;;;;;;;5073658;28;20076;-80
2022/04/22 14:46:43;;;;;;;11.88;4.10;;;;;;;;;;5074971;28;20024;-81
2022/04/22 14:49:14;;;;;;;10.88;4.45;;;;;;;;;;5074155;28;20037;-81
2022/04/22 14:51:40;;;;;;;8.05;3.83;;;;;;;;;;5080095;28;20036;-80
2022/04/22 14:54:06;;;;;;;12.90;3.90;;;;;;;;;;5083360;28;20043;-79
2022/04/22 14:56:33;;;;;;;15.30;4.30;;;;;;;;;;5083335;28;20035;-80
2022/04/22 14:58:59;;;;;;;11.40;4.53;;;;;;;;;;5083987;28;20090;-79
2022/04/22 15:01:25;;;;;;;6.47;3.75;;;;;;;;;;5070098;28;20126;-82
2022/04/22 15:03:51;;;;;;;6.53;4.10;;;;;;;;;;5094972;28;20053;-83
2022/04/22 15:06:17;;;;;;;8.57;4.25;;;;;;;;;;5069240;28;20503;-83
2022/04/22 15:08:43;;;;;;;7.03;4.22;;;;;;;;;;5064601;28;20480;-80
2022/04/22 15:11:09;;;;;;;8.02;3.85;;;;;;;;;;5080184;28;20035;-83
2022/04/22 15:13:36;;;;;;;11.50;4.35;;;;;;;;;;5083291;28;20535;-83
2022/04/22 15:16:02;;;;;;;8.55;4.53;;;;;;;;;;5071221;28;20608;-83
2022/04/22 15:24:10;;;;;;;12.10;4.75;;;;;;;;;;5088037;28;20078;-81
2022/04/22 15:26:36;;;;;;;7.45;4.57;;;;;;;;;;5047771;28;20021;-83
2022/04/22 15:29:04;;;;;;;10.90;4.80;;;;;;;;;;5071557;28;20138;-84
2022/04/22 15:31:30;;;;;;;10.13;4.72;;;;;;;;;;5072843;28;20021;-84
2022/04/22 15:33:57;;;;;;;13.95;5.00;;;;;;;;;;5083908;28;20028;-81
2022/04/22 15:36:23;;;;;;;14.65;5.95;;;;;;;;;;5065025;28;20352;-81
2022/04/22 15:38:50;;;;;;;9.88;5.15;;;;;;;;;;5068379;28;20076;-81
2022/04/22 15:41:17;;;;;;;9.05;5.10;;;;;;;;;;5049836;28;20037;-85
2022/04/22 15:43:44;;;;;;;8.23;5.05;;;;;;;;;;5095180;28;20040;-84
2022/04/22 15:46:11;;;;;;;12.35;5.03;;;;;;;;;;5070078;28;20071;-85
2022/04/22 15:48:39;;;;;;;8.88;5.28;;;;;;;;;;5062581;28;20040;-82
2022/04/22 15:51:06;;;;;;;14.27;5.43;;;;;;;;;;5071909;28;20052;-82
2022/04/22 15:53:33;;;;;;;9.55;5.25;;;;;;;;;;5071308;28;20033;-82
2022/04/22 15:55:59;;;;;;;9.20;5.80;;;;;;;;;;5068886;28;20550;-83
2022/04/22 15:58:25;;;;;;;12.63;5.40;;;;;;;;;;5074356;28;20047;-84